sensor_id;sensor_type;location;lat;lon;timestamp;P1;durP1;ratioP1;P2;durP2;ratioP2
15526;SDS011;7865;50.918;4.510;2022-08-21T00:01:43;6.97;;;2.08;;
15526;SDS011;7865;50.918;4.510;2022-08-21T00:06:45;7.73;;;2.10;;
15526;SDS011;7865;50.918;4.510;2022-08-21T00:11:47;4.38;;;2.42;;
15526;SDS011;7865;50.918;4.510;2022-08-21T00:16:49;6.73;;;2.13;;
15526;SDS011;7865;50.918;4.510;2022-08-21T00:21:52;4.87;;;1.80;;
15526;SDS011;7865;50.918;4.510;2022-08-21T00:26:55;9.50;;;2.60;;
15526;SDS011;7865;50.918;4.510;2022-08-21T00:31:57;5.87;;;2.20;;
15526;SDS011;7865;50.918;4.510;2022-08-21T00:36:59;4.57;;;2.00;;
15526;SDS011;7865;50.918;4.510;2022-08-21T00:42:02;5.43;;;2.15;;
15526;SDS011;7865;50.918;4.510;2022-08-21T00:47:04;4.73;;;1.90;;
15526;SDS011;7865;50.918;4.510;2022-08-21T00:52:07;6.07;;;2.33;;
15526;SDS011;7865;50.918;4.510;2022-08-21T00:57:13;6.27;;;2.30;;
15526;SDS011;7865;50.918;4.510;2022-08-21T01:02:18;6.40;;;2.60;;
15526;SDS011;7865;50.918;4.510;2022-08-21T01:07:21;6.73;;;2.83;;
15526;SDS011;7865;50.918;4.510;2022-08-21T01:12:28;6.80;;;2.10;;
15526;SDS011;7865;50.918;4.510;2022-08-21T01:17:30;6.40;;;2.53;;
15526;SDS011;7865;50.918;4.510;2022-08-21T01:22:32;5.17;;;2.33;;
15526;SDS011;7865;50.918;4.510;2022-08-21T01:27:35;6.77;;;2.40;;
15526;SDS011;7865;50.918;4.510;2022-08-21T01:32:38;9.20;;;2.60;;
15526;SDS011;7865;50.918;4.510;2022-08-21T01:37:41;6.80;;;2.60;;
15526;SDS011;7865;50.918;4.510;2022-08-21T01:42:43;5.40;;;2.23;;
15526;SDS011;7865;50.918;4.510;2022-08-21T01:47:47;8.43;;;2.50;;
15526;SDS011;7865;50.918;4.510;2022-08-21T01:52:49;8.00;;;2.57;;
15526;SDS011;7865;50.918;4.510;2022-08-21T01:57:51;9.97;;;2.60;;
15526;SDS011;7865;50.918;4.510;2022-08-21T02:02:53;6.50;;;2.43;;
15526;SDS011;7865;50.918;4.510;2022-08-21T02:07:55;9.97;;;2.57;;
15526;SDS011;7865;50.918;4.510;2022-08-21T02:12:57;8.80;;;2.30;;
15526;SDS011;7865;50.918;4.510;2022-08-21T02:18:02;6.50;;;2.40;;
15526;SDS011;7865;50.918;4.510;2022-08-21T02:23:08;6.03;;;2.07;;
15526;SDS011;7865;50.918;4.510;2022-08-21T02:28:13;5.87;;;2.40;;
15526;SDS011;7865;50.918;4.510;2022-08-21T02:33:15;12.37;;;3.00;;
15526;SDS011;7865;50.918;4.510;2022-08-21T02:38:23;6.43;;;2.60;;
15526;SDS011;7865;50.918;4.510;2022-08-21T02:43:28;9.23;;;2.90;;
15526;SDS011;7865;50.918;4.510;2022-08-21T02:48:31;8.50;;;2.73;;
15526;SDS011;7865;50.918;4.510;2022-08-21T02:53:34;8.67;;;2.40;;
15526;SDS011;7865;50.918;4.510;2022-08-21T02:58:39;8.80;;;3.53;;
15526;SDS011;7865;50.918;4.510;2022-08-21T03:03:43;7.80;;;2.63;;
15526;SDS011;7865;50.918;4.510;2022-08-21T03:08:47;10.93;;;2.80;;
15526;SDS011;7865;50.918;4.510;2022-08-21T03:13:49;7.73;;;3.07;;
15526;SDS011;7865;50.918;4.510;2022-08-21T03:18:51;5.93;;;2.83;;
15526;SDS011;7865;50.918;4.510;2022-08-21T03:23:53;7.47;;;3.20;;
15526;SDS011;7865;50.918;4.510;2022-08-21T03:28:55;6.07;;;2.83;;
15526;SDS011;7865;50.918;4.510;2022-08-21T03:33:59;8.30;;;2.47;;
15526;SDS011;7865;50.918;4.510;2022-08-21T03:39:01;8.57;;;2.83;;
15526;SDS011;7865;50.918;4.510;2022-08-21T03:44:03;6.93;;;2.60;;
15526;SDS011;7865;50.918;4.510;2022-08-21T03:49:05;5.67;;;2.40;;
15526;SDS011;7865;50.918;4.510;2022-08-21T03:54:08;12.73;;;2.77;;
15526;SDS011;7865;50.918;4.510;2022-08-21T03:59:10;9.13;;;2.47;;
15526;SDS011;7865;50.918;4.510;2022-08-21T04:04:12;8.60;;;1.87;;
15526;SDS011;7865;50.918;4.510;2022-08-21T04:09:14;9.73;;;2.40;;
15526;SDS011;7865;50.918;4.510;2022-08-21T04:14:16;8.97;;;2.83;;
15526;SDS011;7865;50.918;4.510;2022-08-21T04:19:19;7.00;;;2.20;;
15526;SDS011;7865;50.918;4.510;2022-08-21T04:24:21;7.63;;;2.37;;
15526;SDS011;7865;50.918;4.510;2022-08-21T04:29:23;8.17;;;2.60;;
15526;SDS011;7865;50.918;4.510;2022-08-21T04:34:25;8.13;;;2.33;;
15526;SDS011;7865;50.918;4.510;2022-08-21T04:39:27;7.37;;;2.57;;
15526;SDS011;7865;50.918;4.510;2022-08-21T04:44:30;4.67;;;2.27;;
15526;SDS011;7865;50.918;4.510;2022-08-21T04:49:32;4.40;;;2.47;;
15526;SDS011;7865;50.918;4.510;2022-08-21T04:54:34;8.37;;;2.57;;
15526;SDS011;7865;50.918;4.510;2022-08-21T04:59:41;7.83;;;2.50;;
15526;SDS011;7865;50.918;4.510;2022-08-21T05:04:48;11.93;;;2.80;;
15526;SDS011;7865;50.918;4.510;2022-08-21T05:09:52;5.57;;;2.30;;
15526;SDS011;7865;50.918;4.510;2022-08-21T05:14:55;9.53;;;2.37;;
15526;SDS011;7865;50.918;4.510;2022-08-21T05:19:57;12.00;;;3.00;;
15526;SDS011;7865;50.918;4.510;2022-08-21T05:24:59;8.20;;;2.63;;
15526;SDS011;7865;50.918;4.510;2022-08-21T05:30:02;8.40;;;2.70;;
15526;SDS011;7865;50.918;4.510;2022-08-21T05:35:06;8.77;;;2.33;;
15526;SDS011;7865;50.918;4.510;2022-08-21T05:40:09;6.30;;;2.20;;
15526;SDS011;7865;50.918;4.510;2022-08-21T05:45:23;5.73;;;2.33;;
15526;SDS011;7865;50.918;4.510;2022-08-21T05:50:43;6.27;;;2.30;;
15526;SDS011;7865;50.918;4.510;2022-08-21T05:55:46;6.87;;;2.80;;
15526;SDS011;7865;50.918;4.510;2022-08-21T06:00:49;4.90;;;2.17;;
15526;SDS011;7865;50.918;4.510;2022-08-21T06:05:52;4.50;;;1.90;;
15526;SDS011;7865;50.918;4.510;2022-08-21T06:10:56;9.75;;;2.45;;
15526;SDS011;7865;50.918;4.510;2022-08-21T06:16:05;9.10;;;2.25;;
15526;SDS011;7865;50.918;4.510;2022-08-21T06:21:09;4.47;;;1.83;;
15526;SDS011;7865;50.918;4.510;2022-08-21T06:26:13;8.88;;;2.03;;
15526;SDS011;7865;50.918;4.510;2022-08-21T06:31:22;5.50;;;2.35;;
15526;SDS011;7865;50.918;4.510;2022-08-21T06:36:26;8.15;;;1.75;;
15526;SDS011;7865;50.918;4.510;2022-08-21T06:41:28;7.07;;;1.88;;
15526;SDS011;7865;50.918;4.510;2022-08-21T06:46:30;8.18;;;1.70;;
15526;SDS011;7865;50.918;4.510;2022-08-21T06:51:32;7.40;;;2.20;;
15526;SDS011;7865;50.918;4.510;2022-08-21T06:56:35;7.20;;;1.77;;
15526;SDS011;7865;50.918;4.510;2022-08-21T07:01:39;6.00;;;2.20;;
15526;SDS011;7865;50.918;4.510;2022-08-21T07:06:42;5.22;;;1.85;;
15526;SDS011;7865;50.918;4.510;2022-08-21T07:11:44;7.55;;;1.80;;
15526;SDS011;7865;50.918;4.510;2022-08-21T07:16:51;8.32;;;2.00;;
15526;SDS011;7865;50.918;4.510;2022-08-21T07:21:54;6.70;;;1.83;;
15526;SDS011;7865;50.918;4.510;2022-08-21T07:27:00;7.90;;;2.33;;
15526;SDS011;7865;50.918;4.510;2022-08-21T07:32:03;7.68;;;1.77;;
15526;SDS011;7865;50.918;4.510;2022-08-21T07:37:05;6.95;;;1.60;;
15526;SDS011;7865;50.918;4.510;2022-08-21T07:42:10;5.22;;;1.90;;
15526;SDS011;7865;50.918;4.510;2022-08-21T07:47:12;4.18;;;1.60;;
15526;SDS011;7865;50.918;4.510;2022-08-21T07:52:14;7.07;;;1.80;;
15526;SDS011;7865;50.918;4.510;2022-08-21T07:57:16;12.55;;;1.60;;
15526;SDS011;7865;50.918;4.510;2022-08-21T08:02:25;9.48;;;2.38;;
15526;SDS011;7865;50.918;4.510;2022-08-21T08:07:30;7.25;;;2.10;;
15526;SDS011;7865;50.918;4.510;2022-08-21T08:12:33;6.05;;;1.73;;
15526;SDS011;7865;50.918;4.510;2022-08-21T08:17:39;5.93;;;1.90;;
15526;SDS011;7865;50.918;4.510;2022-08-21T08:22:41;7.15;;;2.35;;
15526;SDS011;7865;50.918;4.510;2022-08-21T08:27:54;8.73;;;2.15;;
15526;SDS011;7865;50.918;4.510;2022-08-21T08:32:56;7.80;;;1.70;;
15526;SDS011;7865;50.918;4.510;2022-08-21T08:38:02;7.22;;;1.77;;
15526;SDS011;7865;50.918;4.510;2022-08-21T08:43:04;7.53;;;1.88;;
15526;SDS011;7865;50.918;4.510;2022-08-21T08:48:08;8.35;;;1.65;;
15526;SDS011;7865;50.918;4.510;2022-08-21T08:53:16;8.52;;;2.03;;
15526;SDS011;7865;50.918;4.510;2022-08-21T08:58:30;8.07;;;2.08;;
15526;SDS011;7865;50.918;4.510;2022-08-21T09:03:33;6.75;;;1.83;;
15526;SDS011;7865;50.918;4.510;2022-08-21T09:19:07;4.28;;;1.70;;
15526;SDS011;7865;50.918;4.510;2022-08-21T09:29:53;8.23;;;2.00;;
15526;SDS011;7865;50.918;4.510;2022-08-21T09:35:12;7.07;;;1.98;;
15526;SDS011;7865;50.918;4.510;2022-08-21T09:45:35;6.30;;;1.77;;
15526;SDS011;7865;50.918;4.510;2022-08-21T09:50:37;6.97;;;1.92;;
15526;SDS011;7865;50.918;4.510;2022-08-21T09:55:47;6.97;;;2.00;;
15526;SDS011;7865;50.918;4.510;2022-08-21T10:01:18;7.25;;;1.90;;
15526;SDS011;7865;50.918;4.510;2022-08-21T10:06:25;8.82;;;2.10;;
15526;SDS011;7865;50.918;4.510;2022-08-21T10:11:28;6.93;;;1.83;;
15526;SDS011;7865;50.918;4.510;2022-08-21T10:16:44;5.78;;;1.98;;
15526;SDS011;7865;50.918;4.510;2022-08-21T10:28:13;5.82;;;1.70;;
15526;SDS011;7865;50.918;4.510;2022-08-21T10:49:43;8.02;;;2.38;;
15526;SDS011;7865;50.918;4.510;2022-08-21T10:55:12;5.43;;;1.88;;
15526;SDS011;7865;50.918;4.510;2022-08-21T11:00:20;7.05;;;1.98;;
15526;SDS011;7865;50.918;4.510;2022-08-21T11:05:25;6.65;;;2.10;;
15526;SDS011;7865;50.918;4.510;2022-08-21T11:21:36;8.73;;;2.20;;
15526;SDS011;7865;50.918;4.510;2022-08-21T11:26:44;8.82;;;2.50;;
15526;SDS011;7865;50.918;4.510;2022-08-21T11:32:01;5.60;;;1.95;;
15526;SDS011;7865;50.918;4.510;2022-08-21T11:59:04;5.93;;;1.80;;
15526;SDS011;7865;50.918;4.510;2022-08-21T12:04:32;7.80;;;1.80;;
15526;SDS011;7865;50.918;4.510;2022-08-21T12:09:34;7.72;;;1.90;;
15526;SDS011;7865;50.918;4.510;2022-08-21T12:14:43;7.28;;;1.80;;
15526;SDS011;7865;50.918;4.510;2022-08-21T12:19:56;7.25;;;2.22;;
15526;SDS011;7865;50.918;4.510;2022-08-21T12:25:16;6.32;;;2.03;;
15526;SDS011;7865;50.918;4.510;2022-08-21T12:35:33;6.93;;;2.20;;
15526;SDS011;7865;50.918;4.510;2022-08-21T12:40:40;5.65;;;2.05;;
15526;SDS011;7865;50.918;4.510;2022-08-21T12:45:48;7.65;;;2.20;;
15526;SDS011;7865;50.918;4.510;2022-08-21T12:50:54;7.38;;;1.98;;
15526;SDS011;7865;50.918;4.510;2022-08-21T12:56:00;7.28;;;1.75;;
15526;SDS011;7865;50.918;4.510;2022-08-21T13:06:52;8.27;;;1.95;;
15526;SDS011;7865;50.918;4.510;2022-08-21T13:11:55;5.10;;;1.70;;
15526;SDS011;7865;50.918;4.510;2022-08-21T13:16:58;5.03;;;1.67;;
15526;SDS011;7865;50.918;4.510;2022-08-21T13:22:02;8.07;;;2.08;;
15526;SDS011;7865;50.918;4.510;2022-08-21T13:27:29;8.98;;;1.58;;
15526;SDS011;7865;50.918;4.510;2022-08-21T13:32:34;9.07;;;1.95;;
15526;SDS011;7865;50.918;4.510;2022-08-21T13:37:40;5.43;;;1.95;;
15526;SDS011;7865;50.918;4.510;2022-08-21T13:42:44;5.20;;;1.58;;
15526;SDS011;7865;50.918;4.510;2022-08-21T13:47:47;7.80;;;2.00;;
15526;SDS011;7865;50.918;4.510;2022-08-21T13:52:55;5.22;;;1.90;;
15526;SDS011;7865;50.918;4.510;2022-08-21T13:58:06;5.13;;;1.90;;
15526;SDS011;7865;50.918;4.510;2022-08-21T14:03:10;6.40;;;1.95;;
15526;SDS011;7865;50.918;4.510;2022-08-21T14:08:26;5.82;;;1.95;;
15526;SDS011;7865;50.918;4.510;2022-08-21T14:13:43;4.63;;;1.80;;
15526;SDS011;7865;50.918;4.510;2022-08-21T14:18:50;5.93;;;1.65;;
15526;SDS011;7865;50.918;4.510;2022-08-21T14:24:06;4.57;;;1.77;;
15526;SDS011;7865;50.918;4.510;2022-08-21T14:29:20;8.00;;;1.92;;
15526;SDS011;7865;50.918;4.510;2022-08-21T14:34:27;8.15;;;1.70;;
15526;SDS011;7865;50.918;4.510;2022-08-21T14:39:36;6.28;;;1.88;;
15526;SDS011;7865;50.918;4.510;2022-08-21T14:44:38;7.32;;;2.00;;
15526;SDS011;7865;50.918;4.510;2022-08-21T14:49:40;5.88;;;1.83;;
15526;SDS011;7865;50.918;4.510;2022-08-21T14:54:42;8.50;;;2.25;;
15526;SDS011;7865;50.918;4.510;2022-08-21T14:59:44;6.63;;;2.45;;
15526;SDS011;7865;50.918;4.510;2022-08-21T15:04:46;9.48;;;2.05;;
15526;SDS011;7865;50.918;4.510;2022-08-21T15:09:48;6.47;;;2.10;;
15526;SDS011;7865;50.918;4.510;2022-08-21T15:14:50;9.38;;;1.92;;
15526;SDS011;7865;50.918;4.510;2022-08-21T15:19:52;5.43;;;1.90;;
15526;SDS011;7865;50.918;4.510;2022-08-21T15:24:54;8.02;;;1.95;;
15526;SDS011;7865;50.918;4.510;2022-08-21T15:29:56;7.40;;;2.15;;
15526;SDS011;7865;50.918;4.510;2022-08-21T15:34:58;6.75;;;2.03;;
15526;SDS011;7865;50.918;4.510;2022-08-21T15:40:00;3.22;;;1.55;;
15526;SDS011;7865;50.918;4.510;2022-08-21T15:45:02;4.93;;;1.75;;
15526;SDS011;7865;50.918;4.510;2022-08-21T15:50:06;6.65;;;2.17;;
15526;SDS011;7865;50.918;4.510;2022-08-21T15:55:09;5.85;;;2.30;;
15526;SDS011;7865;50.918;4.510;2022-08-21T16:00:20;6.50;;;2.10;;
15526;SDS011;7865;50.918;4.510;2022-08-21T16:05:24;6.55;;;2.00;;
15526;SDS011;7865;50.918;4.510;2022-08-21T16:10:26;6.47;;;2.03;;
15526;SDS011;7865;50.918;4.510;2022-08-21T16:15:31;9.65;;;1.92;;
15526;SDS011;7865;50.918;4.510;2022-08-21T16:20:33;5.45;;;1.85;;
15526;SDS011;7865;50.918;4.510;2022-08-21T16:25:36;6.15;;;1.95;;
15526;SDS011;7865;50.918;4.510;2022-08-21T16:30:42;6.03;;;1.88;;
15526;SDS011;7865;50.918;4.510;2022-08-21T16:35:46;7.45;;;2.15;;
15526;SDS011;7865;50.918;4.510;2022-08-21T16:40:48;6.03;;;2.20;;
15526;SDS011;7865;50.918;4.510;2022-08-21T16:45:51;7.85;;;1.92;;
15526;SDS011;7865;50.918;4.510;2022-08-21T16:50:54;8.02;;;2.22;;
15526;SDS011;7865;50.918;4.510;2022-08-21T16:55:59;6.72;;;1.80;;
15526;SDS011;7865;50.918;4.510;2022-08-21T17:01:03;6.05;;;1.90;;
15526;SDS011;7865;50.918;4.510;2022-08-21T17:06:08;9.20;;;2.40;;
15526;SDS011;7865;50.918;4.510;2022-08-21T17:11:33;5.88;;;2.08;;
15526;SDS011;7865;50.918;4.510;2022-08-21T17:16:39;7.28;;;1.92;;
15526;SDS011;7865;50.918;4.510;2022-08-21T17:21:42;6.65;;;1.88;;
15526;SDS011;7865;50.918;4.510;2022-08-21T17:26:45;6.15;;;2.40;;
15526;SDS011;7865;50.918;4.510;2022-08-21T17:31:48;9.27;;;2.00;;
15526;SDS011;7865;50.918;4.510;2022-08-21T17:36:50;9.48;;;2.10;;
15526;SDS011;7865;50.918;4.510;2022-08-21T17:41:53;12.10;;;2.40;;
15526;SDS011;7865;50.918;4.510;2022-08-21T17:46:58;7.35;;;2.35;;
15526;SDS011;7865;50.918;4.510;2022-08-21T17:52:00;8.85;;;1.95;;
15526;SDS011;7865;50.918;4.510;2022-08-21T17:57:03;6.43;;;2.25;;
15526;SDS011;7865;50.918;4.510;2022-08-21T18:02:05;7.68;;;2.60;;
15526;SDS011;7865;50.918;4.510;2022-08-21T18:07:20;6.57;;;2.17;;
15526;SDS011;7865;50.918;4.510;2022-08-21T18:12:33;5.65;;;1.70;;
15526;SDS011;7865;50.918;4.510;2022-08-21T18:17:35;13.02;;;2.85;;
15526;SDS011;7865;50.918;4.510;2022-08-21T18:22:37;6.57;;;2.33;;
15526;SDS011;7865;50.918;4.510;2022-08-21T18:27:40;6.90;;;2.30;;
15526;SDS011;7865;50.918;4.510;2022-08-21T18:32:46;6.95;;;2.28;;
15526;SDS011;7865;50.918;4.510;2022-08-21T18:37:48;8.35;;;2.35;;
15526;SDS011;7865;50.918;4.510;2022-08-21T18:42:50;12.43;;;2.28;;
15526;SDS011;7865;50.918;4.510;2022-08-21T18:47:56;8.40;;;2.05;;
15526;SDS011;7865;50.918;4.510;2022-08-21T18:52:59;7.95;;;2.30;;
15526;SDS011;7865;50.918;4.510;2022-08-21T18:58:01;7.70;;;2.53;;
15526;SDS011;7865;50.918;4.510;2022-08-21T19:03:03;9.00;;;2.75;;
15526;SDS011;7865;50.918;4.510;2022-08-21T19:08:12;10.70;;;2.42;;
15526;SDS011;7865;50.918;4.510;2022-08-21T19:13:17;8.13;;;4.00;;
15526;SDS011;7865;50.918;4.510;2022-08-21T19:18:21;7.57;;;2.63;;
15526;SDS011;7865;50.918;4.510;2022-08-21T19:23:29;8.77;;;2.80;;
15526;SDS011;7865;50.918;4.510;2022-08-21T19:28:37;11.05;;;2.45;;
15526;SDS011;7865;50.918;4.510;2022-08-21T19:33:46;10.57;;;2.75;;
15526;SDS011;7865;50.918;4.510;2022-08-21T19:38:51;9.57;;;2.80;;
15526;SDS011;7865;50.918;4.510;2022-08-21T19:43:54;7.75;;;2.38;;
15526;SDS011;7865;50.918;4.510;2022-08-21T19:49:04;8.68;;;2.70;;
15526;SDS011;7865;50.918;4.510;2022-08-21T19:54:15;8.25;;;3.20;;
15526;SDS011;7865;50.918;4.510;2022-08-21T19:59:22;9.50;;;2.90;;
15526;SDS011;7865;50.918;4.510;2022-08-21T20:04:26;6.53;;;2.65;;
15526;SDS011;7865;50.918;4.510;2022-08-21T20:09:28;12.02;;;3.40;;
15526;SDS011;7865;50.918;4.510;2022-08-21T20:14:30;12.35;;;3.13;;
15526;SDS011;7865;50.918;4.510;2022-08-21T20:19:34;13.05;;;3.28;;
15526;SDS011;7865;50.918;4.510;2022-08-21T20:24:38;9.40;;;2.70;;
15526;SDS011;7865;50.918;4.510;2022-08-21T20:29:43;8.43;;;2.92;;
15526;SDS011;7865;50.918;4.510;2022-08-21T20:34:45;8.38;;;3.20;;
15526;SDS011;7865;50.918;4.510;2022-08-21T20:39:52;9.90;;;2.80;;
15526;SDS011;7865;50.918;4.510;2022-08-21T20:44:54;7.82;;;3.13;;
15526;SDS011;7865;50.918;4.510;2022-08-21T20:49:57;11.43;;;3.25;;
15526;SDS011;7865;50.918;4.510;2022-08-21T20:55:08;11.68;;;3.22;;
15526;SDS011;7865;50.918;4.510;2022-08-21T21:00:14;5.88;;;2.75;;
15526;SDS011;7865;50.918;4.510;2022-08-21T21:10:34;10.52;;;2.95;;
15526;SDS011;7865;50.918;4.510;2022-08-21T21:15:45;7.95;;;2.88;;
15526;SDS011;7865;50.918;4.510;2022-08-21T21:20:56;8.68;;;3.05;;
15526;SDS011;7865;50.918;4.510;2022-08-21T21:31:23;8.32;;;2.25;;
15526;SDS011;7865;50.918;4.510;2022-08-21T21:36:29;7.45;;;2.92;;
15526;SDS011;7865;50.918;4.510;2022-08-21T21:41:58;8.38;;;2.85;;
15526;SDS011;7865;50.918;4.510;2022-08-21T22:03:07;9.35;;;3.50;;
15526;SDS011;7865;50.918;4.510;2022-08-21T22:08:20;9.57;;;3.45;;
15526;SDS011;7865;50.918;4.510;2022-08-21T22:13:47;6.03;;;3.17;;
15526;SDS011;7865;50.918;4.510;2022-08-21T22:18:55;7.47;;;3.20;;
15526;SDS011;7865;50.918;4.510;2022-08-21T22:24:08;9.30;;;3.03;;
15526;SDS011;7865;50.918;4.510;2022-08-21T22:29:19;7.18;;;3.45;;
15526;SDS011;7865;50.918;4.510;2022-08-21T22:34:23;5.60;;;2.97;;
15526;SDS011;7865;50.918;4.510;2022-08-21T22:39:27;7.10;;;2.90;;
15526;SDS011;7865;50.918;4.510;2022-08-21T22:45:13;5.40;;;2.97;;
15526;SDS011;7865;50.918;4.510;2022-08-21T22:50:20;6.07;;;2.95;;
15526;SDS011;7865;50.918;4.510;2022-08-21T22:55:42;7.93;;;3.42;;
15526;SDS011;7865;50.918;4.510;2022-08-21T23:11:37;6.32;;;3.08;;
15526;SDS011;7865;50.918;4.510;2022-08-21T23:17:00;10.27;;;3.25;;
15526;SDS011;7865;50.918;4.510;2022-08-21T23:27:39;6.15;;;2.72;;
15526;SDS011;7865;50.918;4.510;2022-08-21T23:43:31;8.88;;;3.70;;
15526;SDS011;7865;50.918;4.510;2022-08-21T23:48:57;8.10;;;3.38;;
15526;SDS011;7865;50.918;4.510;2022-08-21T23:54:12;7.88;;;3.75;;
15526;SDS011;7865;50.918;4.510;2022-08-21T23:59:33;11.93;;;3.50;;
